sensor_id;sensor_type;location;lat;lon;timestamp;P1;durP1;ratioP1;P2;durP2;ratioP2
79566;SDS011;69030;48.126;7.816;2023-12-29T00:01:18;4.20;;;2.90;;
79566;SDS011;69030;48.126;7.816;2023-12-29T00:03:44;3.35;;;2.08;;
79566;SDS011;69030;48.126;7.816;2023-12-29T00:06:11;4.53;;;2.45;;
79566;SDS011;69030;48.126;7.816;2023-12-29T00:08:37;6.25;;;2.17;;
79566;SDS011;69030;48.126;7.816;2023-12-29T00:11:02;4.10;;;2.15;;
79566;SDS011;69030;48.126;7.816;2023-12-29T00:13:28;6.88;;;2.80;;
79566;SDS011;69030;48.126;7.816;2023-12-29T00:15:53;4.75;;;2.58;;
79566;SDS011;69030;48.126;7.816;2023-12-29T00:18:24;2.88;;;1.73;;
79566;SDS011;69030;48.126;7.816;2023-12-29T00:20:50;4.10;;;1.88;;
79566;SDS011;69030;48.126;7.816;2023-12-29T00:23:16;3.30;;;1.90;;
79566;SDS011;69030;48.126;7.816;2023-12-29T00:25:41;4.55;;;1.95;;
79566;SDS011;69030;48.126;7.816;2023-12-29T00:28:06;4.25;;;1.42;;
79566;SDS011;69030;48.126;7.816;2023-12-29T00:30:39;2.90;;;1.67;;
79566;SDS011;69030;48.126;7.816;2023-12-29T00:33:05;3.40;;;1.85;;
79566;SDS011;69030;48.126;7.816;2023-12-29T00:35:31;4.75;;;2.38;;
79566;SDS011;69030;48.126;7.816;2023-12-29T00:37:58;3.58;;;1.70;;
79566;SDS011;69030;48.126;7.816;2023-12-29T00:40:24;2.97;;;2.03;;
79566;SDS011;69030;48.126;7.816;2023-12-29T00:42:49;2.75;;;1.52;;
79566;SDS011;69030;48.126;7.816;2023-12-29T00:45:15;2.05;;;1.58;;
79566;SDS011;69030;48.126;7.816;2023-12-29T00:47:40;3.33;;;1.48;;
79566;SDS011;69030;48.126;7.816;2023-12-29T00:50:06;4.88;;;1.77;;
79566;SDS011;69030;48.126;7.816;2023-12-29T00:52:32;2.88;;;1.58;;
79566;SDS011;69030;48.126;7.816;2023-12-29T00:54:58;3.75;;;1.60;;
79566;SDS011;69030;48.126;7.816;2023-12-29T00:57:24;3.38;;;2.35;;
79566;SDS011;69030;48.126;7.816;2023-12-29T00:59:49;4.35;;;2.17;;
79566;SDS011;69030;48.126;7.816;2023-12-29T01:02:15;3.97;;;2.15;;
79566;SDS011;69030;48.126;7.816;2023-12-29T01:04:40;3.35;;;2.33;;
79566;SDS011;69030;48.126;7.816;2023-12-29T01:07:06;2.65;;;2.17;;
79566;SDS011;69030;48.126;7.816;2023-12-29T01:09:31;3.08;;;2.50;;
79566;SDS011;69030;48.126;7.816;2023-12-29T01:12:02;3.15;;;2.58;;
79566;SDS011;69030;48.126;7.816;2023-12-29T01:14:28;4.65;;;2.20;;
79566;SDS011;69030;48.126;7.816;2023-12-29T01:16:53;3.97;;;2.53;;
79566;SDS011;69030;48.126;7.816;2023-12-29T01:19:19;3.50;;;2.40;;
79566;SDS011;69030;48.126;7.816;2023-12-29T01:21:44;3.35;;;2.08;;
79566;SDS011;69030;48.126;7.816;2023-12-29T01:24:09;5.05;;;2.50;;
79566;SDS011;69030;48.126;7.816;2023-12-29T01:26:38;3.85;;;2.50;;
79566;SDS011;69030;48.126;7.816;2023-12-29T01:29:04;4.57;;;2.75;;
79566;SDS011;69030;48.126;7.816;2023-12-29T01:31:30;5.60;;;3.10;;
79566;SDS011;69030;48.126;7.816;2023-12-29T01:33:55;3.50;;;2.28;;
79566;SDS011;69030;48.126;7.816;2023-12-29T01:36:23;2.42;;;1.40;;
79566;SDS011;69030;48.126;7.816;2023-12-29T01:38:49;3.67;;;1.65;;
79566;SDS011;69030;48.126;7.816;2023-12-29T01:41:14;4.15;;;2.05;;
79566;SDS011;69030;48.126;7.816;2023-12-29T01:46:24;2.60;;;2.33;;
79566;SDS011;69030;48.126;7.816;2023-12-29T01:48:54;3.75;;;2.17;;
79566;SDS011;69030;48.126;7.816;2023-12-29T01:51:20;4.90;;;3.63;;
79566;SDS011;69030;48.126;7.816;2023-12-29T01:53:47;3.33;;;1.95;;
79566;SDS011;69030;48.126;7.816;2023-12-29T01:56:13;6.25;;;2.95;;
79566;SDS011;69030;48.126;7.816;2023-12-29T01:58:43;6.38;;;2.33;;
79566;SDS011;69030;48.126;7.816;2023-12-29T02:01:09;4.88;;;2.92;;
79566;SDS011;69030;48.126;7.816;2023-12-29T02:03:37;4.38;;;2.92;;
79566;SDS011;69030;48.126;7.816;2023-12-29T02:06:03;3.63;;;2.65;;
79566;SDS011;69030;48.126;7.816;2023-12-29T02:08:30;3.35;;;2.40;;
79566;SDS011;69030;48.126;7.816;2023-12-29T02:10:55;4.00;;;2.60;;
79566;SDS011;69030;48.126;7.816;2023-12-29T02:13:22;4.22;;;2.80;;
79566;SDS011;69030;48.126;7.816;2023-12-29T02:15:48;5.00;;;3.10;;
79566;SDS011;69030;48.126;7.816;2023-12-29T02:18:16;5.28;;;2.13;;
79566;SDS011;69030;48.126;7.816;2023-12-29T02:20:43;5.43;;;3.00;;
79566;SDS011;69030;48.126;7.816;2023-12-29T02:23:08;5.72;;;1.90;;
79566;SDS011;69030;48.126;7.816;2023-12-29T02:25:36;4.95;;;2.78;;
79566;SDS011;69030;48.126;7.816;2023-12-29T02:28:08;3.88;;;2.00;;
79566;SDS011;69030;48.126;7.816;2023-12-29T02:33:16;3.70;;;2.33;;
79566;SDS011;69030;48.126;7.816;2023-12-29T02:35:45;3.88;;;2.38;;
79566;SDS011;69030;48.126;7.816;2023-12-29T02:38:11;3.70;;;2.78;;
79566;SDS011;69030;48.126;7.816;2023-12-29T02:40:37;4.40;;;2.20;;
79566;SDS011;69030;48.126;7.816;2023-12-29T02:43:03;4.05;;;3.05;;
79566;SDS011;69030;48.126;7.816;2023-12-29T02:45:29;3.45;;;2.70;;
79566;SDS011;69030;48.126;7.816;2023-12-29T02:47:55;4.47;;;2.58;;
79566;SDS011;69030;48.126;7.816;2023-12-29T02:50:20;4.18;;;3.00;;
79566;SDS011;69030;48.126;7.816;2023-12-29T02:52:46;4.10;;;2.65;;
79566;SDS011;69030;48.126;7.816;2023-12-29T02:55:14;4.78;;;2.70;;
79566;SDS011;69030;48.126;7.816;2023-12-29T02:57:40;4.40;;;2.85;;
79566;SDS011;69030;48.126;7.816;2023-12-29T03:00:05;6.25;;;3.05;;
79566;SDS011;69030;48.126;7.816;2023-12-29T03:02:31;4.07;;;2.67;;
79566;SDS011;69030;48.126;7.816;2023-12-29T03:04:58;5.50;;;2.72;;
79566;SDS011;69030;48.126;7.816;2023-12-29T03:07:24;4.55;;;2.70;;
79566;SDS011;69030;48.126;7.816;2023-12-29T03:09:50;4.93;;;2.80;;
79566;SDS011;69030;48.126;7.816;2023-12-29T03:12:15;4.82;;;3.08;;
79566;SDS011;69030;48.126;7.816;2023-12-29T03:14:41;6.13;;;3.15;;
79566;SDS011;69030;48.126;7.816;2023-12-29T03:17:06;4.72;;;3.10;;
79566;SDS011;69030;48.126;7.816;2023-12-29T03:19:31;4.38;;;2.50;;
79566;SDS011;69030;48.126;7.816;2023-12-29T03:21:57;5.22;;;2.92;;
79566;SDS011;69030;48.126;7.816;2023-12-29T03:24:22;7.25;;;2.55;;
79566;SDS011;69030;48.126;7.816;2023-12-29T03:26:48;4.90;;;3.35;;
79566;SDS011;69030;48.126;7.816;2023-12-29T03:29:13;4.03;;;2.80;;
79566;SDS011;69030;48.126;7.816;2023-12-29T03:31:39;5.13;;;3.15;;
79566;SDS011;69030;48.126;7.816;2023-12-29T03:34:07;5.68;;;2.28;;
79566;SDS011;69030;48.126;7.816;2023-12-29T03:36:32;4.03;;;2.50;;
79566;SDS011;69030;48.126;7.816;2023-12-29T03:38:58;4.22;;;3.22;;
79566;SDS011;69030;48.126;7.816;2023-12-29T03:41:23;5.75;;;2.90;;
79566;SDS011;69030;48.126;7.816;2023-12-29T03:43:49;5.45;;;2.55;;
79566;SDS011;69030;48.126;7.816;2023-12-29T03:46:14;4.60;;;2.85;;
79566;SDS011;69030;48.126;7.816;2023-12-29T03:48:43;3.83;;;2.33;;
79566;SDS011;69030;48.126;7.816;2023-12-29T03:51:09;5.70;;;2.40;;
79566;SDS011;69030;48.126;7.816;2023-12-29T03:53:35;6.68;;;2.88;;
79566;SDS011;69030;48.126;7.816;2023-12-29T03:56:04;4.22;;;1.80;;
79566;SDS011;69030;48.126;7.816;2023-12-29T03:58:34;6.05;;;2.83;;
79566;SDS011;69030;48.126;7.816;2023-12-29T04:01:03;6.40;;;2.70;;
79566;SDS011;69030;48.126;7.816;2023-12-29T04:03:29;3.70;;;2.53;;
79566;SDS011;69030;48.126;7.816;2023-12-29T04:05:55;4.78;;;2.58;;
79566;SDS011;69030;48.126;7.816;2023-12-29T04:08:23;5.35;;;2.55;;
79566;SDS011;69030;48.126;7.816;2023-12-29T04:10:48;3.05;;;2.10;;
79566;SDS011;69030;48.126;7.816;2023-12-29T04:13:14;3.83;;;2.10;;
79566;SDS011;69030;48.126;7.816;2023-12-29T04:15:39;4.90;;;3.42;;
79566;SDS011;69030;48.126;7.816;2023-12-29T04:18:07;3.65;;;2.75;;
79566;SDS011;69030;48.126;7.816;2023-12-29T04:20:33;4.20;;;2.33;;
79566;SDS011;69030;48.126;7.816;2023-12-29T04:22:58;5.15;;;3.00;;
79566;SDS011;69030;48.126;7.816;2023-12-29T04:25:24;4.15;;;3.00;;
79566;SDS011;69030;48.126;7.816;2023-12-29T04:27:49;4.13;;;2.97;;
79566;SDS011;69030;48.126;7.816;2023-12-29T04:30:15;3.22;;;1.67;;
79566;SDS011;69030;48.126;7.816;2023-12-29T04:32:40;7.93;;;3.00;;
79566;SDS011;69030;48.126;7.816;2023-12-29T04:35:06;4.93;;;3.60;;
79566;SDS011;69030;48.126;7.816;2023-12-29T04:37:32;5.30;;;2.42;;
79566;SDS011;69030;48.126;7.816;2023-12-29T04:39:58;4.35;;;2.45;;
79566;SDS011;69030;48.126;7.816;2023-12-29T04:42:24;3.50;;;2.42;;
79566;SDS011;69030;48.126;7.816;2023-12-29T04:44:50;4.45;;;2.67;;
79566;SDS011;69030;48.126;7.816;2023-12-29T04:47:15;4.80;;;2.40;;
79566;SDS011;69030;48.126;7.816;2023-12-29T04:49:41;4.28;;;2.28;;
79566;SDS011;69030;48.126;7.816;2023-12-29T04:52:08;4.28;;;2.30;;
79566;SDS011;69030;48.126;7.816;2023-12-29T04:54:33;2.88;;;1.83;;
79566;SDS011;69030;48.126;7.816;2023-12-29T04:56:58;5.47;;;2.38;;
79566;SDS011;69030;48.126;7.816;2023-12-29T04:59:24;4.05;;;2.63;;
79566;SDS011;69030;48.126;7.816;2023-12-29T05:01:49;5.28;;;2.08;;
79566;SDS011;69030;48.126;7.816;2023-12-29T05:04:15;3.80;;;2.28;;
79566;SDS011;69030;48.126;7.816;2023-12-29T05:06:41;2.35;;;1.88;;
79566;SDS011;69030;48.126;7.816;2023-12-29T05:09:07;4.50;;;2.30;;
79566;SDS011;69030;48.126;7.816;2023-12-29T05:11:33;4.32;;;2.03;;
79566;SDS011;69030;48.126;7.816;2023-12-29T05:14:00;2.95;;;2.65;;
79566;SDS011;69030;48.126;7.816;2023-12-29T05:16:26;5.10;;;3.25;;
79566;SDS011;69030;48.126;7.816;2023-12-29T05:18:52;2.95;;;1.80;;
79566;SDS011;69030;48.126;7.816;2023-12-29T05:21:18;3.05;;;1.83;;
79566;SDS011;69030;48.126;7.816;2023-12-29T05:23:44;2.92;;;2.17;;
79566;SDS011;69030;48.126;7.816;2023-12-29T05:26:14;4.47;;;2.25;;
79566;SDS011;69030;48.126;7.816;2023-12-29T05:28:39;2.88;;;1.63;;
79566;SDS011;69030;48.126;7.816;2023-12-29T05:31:05;3.95;;;1.73;;
79566;SDS011;69030;48.126;7.816;2023-12-29T05:33:31;3.25;;;1.85;;
79566;SDS011;69030;48.126;7.816;2023-12-29T05:35:58;3.28;;;1.83;;
79566;SDS011;69030;48.126;7.816;2023-12-29T05:38:24;2.88;;;1.88;;
79566;SDS011;69030;48.126;7.816;2023-12-29T05:40:50;2.47;;;2.05;;
79566;SDS011;69030;48.126;7.816;2023-12-29T05:43:18;5.97;;;2.08;;
79566;SDS011;69030;48.126;7.816;2023-12-29T05:45:44;2.70;;;1.70;;
79566;SDS011;69030;48.126;7.816;2023-12-29T05:48:10;2.78;;;2.15;;
79566;SDS011;69030;48.126;7.816;2023-12-29T05:50:37;3.58;;;1.80;;
79566;SDS011;69030;48.126;7.816;2023-12-29T05:53:03;2.63;;;1.55;;
79566;SDS011;69030;48.126;7.816;2023-12-29T05:55:30;3.78;;;1.92;;
79566;SDS011;69030;48.126;7.816;2023-12-29T05:57:55;4.25;;;2.42;;
79566;SDS011;69030;48.126;7.816;2023-12-29T06:00:21;3.53;;;2.05;;
79566;SDS011;69030;48.126;7.816;2023-12-29T06:02:46;3.22;;;2.55;;
79566;SDS011;69030;48.126;7.816;2023-12-29T06:05:14;6.68;;;3.17;;
79566;SDS011;69030;48.126;7.816;2023-12-29T06:07:40;3.38;;;2.28;;
79566;SDS011;69030;48.126;7.816;2023-12-29T06:10:05;4.13;;;2.47;;
79566;SDS011;69030;48.126;7.816;2023-12-29T06:12:31;3.33;;;1.80;;
79566;SDS011;69030;48.126;7.816;2023-12-29T06:14:57;3.50;;;2.10;;
79566;SDS011;69030;48.126;7.816;2023-12-29T06:17:24;3.20;;;1.55;;
79566;SDS011;69030;48.126;7.816;2023-12-29T06:19:49;4.32;;;1.63;;
79566;SDS011;69030;48.126;7.816;2023-12-29T06:22:15;2.45;;;1.80;;
79566;SDS011;69030;48.126;7.816;2023-12-29T06:24:42;2.75;;;1.73;;
79566;SDS011;69030;48.126;7.816;2023-12-29T06:27:08;2.70;;;1.40;;
79566;SDS011;69030;48.126;7.816;2023-12-29T06:29:34;2.33;;;1.55;;
79566;SDS011;69030;48.126;7.816;2023-12-29T06:32:00;3.85;;;1.73;;
79566;SDS011;69030;48.126;7.816;2023-12-29T06:34:25;2.92;;;1.58;;
79566;SDS011;69030;48.126;7.816;2023-12-29T06:36:51;4.30;;;1.55;;
79566;SDS011;69030;48.126;7.816;2023-12-29T06:39:17;2.08;;;1.55;;
79566;SDS011;69030;48.126;7.816;2023-12-29T06:41:43;2.03;;;1.17;;
79566;SDS011;69030;48.126;7.816;2023-12-29T06:44:08;2.25;;;1.23;;
79566;SDS011;69030;48.126;7.816;2023-12-29T06:46:34;1.90;;;1.20;;
79566;SDS011;69030;48.126;7.816;2023-12-29T06:49:02;3.40;;;1.40;;
79566;SDS011;69030;48.126;7.816;2023-12-29T06:51:27;5.93;;;2.10;;
79566;SDS011;69030;48.126;7.816;2023-12-29T06:53:56;3.45;;;1.80;;
79566;SDS011;69030;48.126;7.816;2023-12-29T06:56:23;3.78;;;1.63;;
79566;SDS011;69030;48.126;7.816;2023-12-29T06:58:48;2.67;;;1.65;;
79566;SDS011;69030;48.126;7.816;2023-12-29T07:01:15;2.10;;;1.70;;
79566;SDS011;69030;48.126;7.816;2023-12-29T07:03:41;5.55;;;1.77;;
79566;SDS011;69030;48.126;7.816;2023-12-29T07:06:09;2.38;;;1.45;;
79566;SDS011;69030;48.126;7.816;2023-12-29T07:08:35;3.13;;;1.85;;
79566;SDS011;69030;48.126;7.816;2023-12-29T07:11:02;2.35;;;1.45;;
79566;SDS011;69030;48.126;7.816;2023-12-29T07:13:27;4.97;;;2.72;;
79566;SDS011;69030;48.126;7.816;2023-12-29T07:15:53;4.00;;;2.35;;
79566;SDS011;69030;48.126;7.816;2023-12-29T07:18:38;2.72;;;1.75;;
79566;SDS011;69030;48.126;7.816;2023-12-29T07:21:07;3.33;;;1.92;;
79566;SDS011;69030;48.126;7.816;2023-12-29T07:23:33;2.60;;;1.20;;
79566;SDS011;69030;48.126;7.816;2023-12-29T07:25:58;3.03;;;2.13;;
79566;SDS011;69030;48.126;7.816;2023-12-29T07:28:24;2.05;;;1.17;;
79566;SDS011;69030;48.126;7.816;2023-12-29T07:30:49;5.97;;;2.72;;
79566;SDS011;69030;48.126;7.816;2023-12-29T07:33:15;2.85;;;2.05;;
79566;SDS011;69030;48.126;7.816;2023-12-29T07:35:41;1.63;;;1.38;;
79566;SDS011;69030;48.126;7.816;2023-12-29T07:38:06;2.13;;;1.55;;
79566;SDS011;69030;48.126;7.816;2023-12-29T07:40:34;2.47;;;1.15;;
79566;SDS011;69030;48.126;7.816;2023-12-29T07:43:01;2.45;;;1.58;;
79566;SDS011;69030;48.126;7.816;2023-12-29T07:45:26;2.85;;;1.20;;
79566;SDS011;69030;48.126;7.816;2023-12-29T07:47:52;2.38;;;1.65;;
79566;SDS011;69030;48.126;7.816;2023-12-29T07:50:17;7.50;;;1.27;;
79566;SDS011;69030;48.126;7.816;2023-12-29T07:52:43;2.78;;;2.03;;
79566;SDS011;69030;48.126;7.816;2023-12-29T07:55:09;1.70;;;0.95;;
79566;SDS011;69030;48.126;7.816;2023-12-29T07:57:35;2.83;;;1.67;;
79566;SDS011;69030;48.126;7.816;2023-12-29T08:00:01;1.90;;;1.23;;
79566;SDS011;69030;48.126;7.816;2023-12-29T08:02:31;2.13;;;1.83;;
79566;SDS011;69030;48.126;7.816;2023-12-29T08:04:56;2.72;;;0.95;;
79566;SDS011;69030;48.126;7.816;2023-12-29T08:07:22;2.65;;;1.27;;
79566;SDS011;69030;48.126;7.816;2023-12-29T08:09:47;2.90;;;1.50;;
79566;SDS011;69030;48.126;7.816;2023-12-29T08:12:18;1.67;;;1.42;;
79566;SDS011;69030;48.126;7.816;2023-12-29T08:14:44;3.65;;;1.65;;
79566;SDS011;69030;48.126;7.816;2023-12-29T08:17:09;2.10;;;1.08;;
79566;SDS011;69030;48.126;7.816;2023-12-29T08:19:35;2.75;;;0.77;;
79566;SDS011;69030;48.126;7.816;2023-12-29T08:22:01;2.17;;;1.35;;
79566;SDS011;69030;48.126;7.816;2023-12-29T08:24:27;2.72;;;1.05;;
79566;SDS011;69030;48.126;7.816;2023-12-29T08:26:52;2.53;;;1.52;;
79566;SDS011;69030;48.126;7.816;2023-12-29T08:29:17;2.42;;;0.98;;
79566;SDS011;69030;48.126;7.816;2023-12-29T08:31:44;2.92;;;1.05;;
79566;SDS011;69030;48.126;7.816;2023-12-29T08:34:13;2.00;;;0.75;;
79566;SDS011;69030;48.126;7.816;2023-12-29T08:36:38;2.00;;;1.05;;
79566;SDS011;69030;48.126;7.816;2023-12-29T08:39:04;4.88;;;0.93;;
79566;SDS011;69030;48.126;7.816;2023-12-29T08:41:29;1.63;;;0.55;;
79566;SDS011;69030;48.126;7.816;2023-12-29T08:46:26;2.88;;;1.17;;
79566;SDS011;69030;48.126;7.816;2023-12-29T08:49:01;2.42;;;1.17;;
79566;SDS011;69030;48.126;7.816;2023-12-29T08:51:26;1.42;;;1.08;;
79566;SDS011;69030;48.126;7.816;2023-12-29T08:53:53;2.05;;;1.13;;
79566;SDS011;69030;48.126;7.816;2023-12-29T08:56:18;2.20;;;0.75;;
79566;SDS011;69030;48.126;7.816;2023-12-29T08:58:43;2.83;;;1.25;;
79566;SDS011;69030;48.126;7.816;2023-12-29T09:01:09;1.65;;;0.95;;
79566;SDS011;69030;48.126;7.816;2023-12-29T09:03:34;2.35;;;1.35;;
79566;SDS011;69030;48.126;7.816;2023-12-29T09:05:59;1.67;;;1.40;;
79566;SDS011;69030;48.126;7.816;2023-12-29T09:08:26;3.67;;;0.95;;
79566;SDS011;69030;48.126;7.816;2023-12-29T09:10:52;1.90;;;0.95;;
79566;SDS011;69030;48.126;7.816;2023-12-29T09:13:17;1.77;;;1.17;;
79566;SDS011;69030;48.126;7.816;2023-12-29T09:15:47;1.92;;;0.75;;
79566;SDS011;69030;48.126;7.816;2023-12-29T09:18:13;1.42;;;1.00;;
79566;SDS011;69030;48.126;7.816;2023-12-29T09:20:39;1.67;;;0.98;;
79566;SDS011;69030;48.126;7.816;2023-12-29T09:23:04;3.58;;;1.40;;
79566;SDS011;69030;48.126;7.816;2023-12-29T09:25:30;3.58;;;1.15;;
79566;SDS011;69030;48.126;7.816;2023-12-29T09:27:56;1.63;;;1.08;;
79566;SDS011;69030;48.126;7.816;2023-12-29T09:30:21;1.73;;;0.88;;
79566;SDS011;69030;48.126;7.816;2023-12-29T09:32:47;2.67;;;0.77;;
79566;SDS011;69030;48.126;7.816;2023-12-29T09:35:13;2.00;;;1.50;;
79566;SDS011;69030;48.126;7.816;2023-12-29T09:37:49;1.42;;;0.85;;
79566;SDS011;69030;48.126;7.816;2023-12-29T09:40:15;2.60;;;1.10;;
79566;SDS011;69030;48.126;7.816;2023-12-29T09:42:50;1.92;;;0.63;;
79566;SDS011;69030;48.126;7.816;2023-12-29T09:45:19;3.60;;;0.85;;
79566;SDS011;69030;48.126;7.816;2023-12-29T09:47:52;1.65;;;0.93;;
79566;SDS011;69030;48.126;7.816;2023-12-29T09:50:19;1.73;;;1.02;;
79566;SDS011;69030;48.126;7.816;2023-12-29T09:52:49;2.20;;;0.85;;
79566;SDS011;69030;48.126;7.816;2023-12-29T09:55:17;1.15;;;0.88;;
79566;SDS011;69030;48.126;7.816;2023-12-29T09:57:43;7.47;;;4.00;;
79566;SDS011;69030;48.126;7.816;2023-12-29T10:00:12;2.05;;;1.17;;
79566;SDS011;69030;48.126;7.816;2023-12-29T10:02:41;4.88;;;2.22;;
79566;SDS011;69030;48.126;7.816;2023-12-29T10:05:07;1.90;;;0.73;;
79566;SDS011;69030;48.126;7.816;2023-12-29T10:07:37;3.15;;;1.00;;
79566;SDS011;69030;48.126;7.816;2023-12-29T10:10:03;2.35;;;0.88;;
79566;SDS011;69030;48.126;7.816;2023-12-29T10:12:34;2.35;;;1.02;;
79566;SDS011;69030;48.126;7.816;2023-12-29T10:15:10;3.75;;;1.13;;
79566;SDS011;69030;48.126;7.816;2023-12-29T10:25:23;3.17;;;1.08;;
79566;SDS011;69030;48.126;7.816;2023-12-29T10:27:49;3.50;;;1.30;;
79566;SDS011;69030;48.126;7.816;2023-12-29T10:30:14;5.20;;;2.10;;
79566;SDS011;69030;48.126;7.816;2023-12-29T10:32:42;3.63;;;1.35;;
79566;SDS011;69030;48.126;7.816;2023-12-29T10:35:09;2.10;;;1.02;;
79566;SDS011;69030;48.126;7.816;2023-12-29T10:37:36;7.00;;;1.52;;
79566;SDS011;69030;48.126;7.816;2023-12-29T10:40:05;2.28;;;1.13;;
79566;SDS011;69030;48.126;7.816;2023-12-29T10:42:31;4.82;;;1.98;;
79566;SDS011;69030;48.126;7.816;2023-12-29T10:45:04;2.08;;;1.17;;
79566;SDS011;69030;48.126;7.816;2023-12-29T10:47:33;4.10;;;1.13;;
79566;SDS011;69030;48.126;7.816;2023-12-29T10:50:01;1.42;;;1.05;;
79566;SDS011;69030;48.126;7.816;2023-12-29T10:52:35;1.88;;;1.10;;
79566;SDS011;69030;48.126;7.816;2023-12-29T10:55:05;3.28;;;1.13;;
79566;SDS011;69030;48.126;7.816;2023-12-29T10:57:32;1.92;;;1.10;;
79566;SDS011;69030;48.126;7.816;2023-12-29T11:00:01;1.90;;;1.10;;
79566;SDS011;69030;48.126;7.816;2023-12-29T11:02:27;2.85;;;1.77;;
79566;SDS011;69030;48.126;7.816;2023-12-29T11:05:06;2.63;;;0.95;;
79566;SDS011;69030;48.126;7.816;2023-12-29T11:07:39;1.80;;;1.30;;
79566;SDS011;69030;48.126;7.816;2023-12-29T11:10:09;2.35;;;0.73;;
79566;SDS011;69030;48.126;7.816;2023-12-29T11:12:38;1.75;;;1.15;;
79566;SDS011;69030;48.126;7.816;2023-12-29T11:15:06;1.77;;;1.10;;
79566;SDS011;69030;48.126;7.816;2023-12-29T11:17:34;2.00;;;1.08;;
79566;SDS011;69030;48.126;7.816;2023-12-29T11:20:00;1.27;;;1.00;;
79566;SDS011;69030;48.126;7.816;2023-12-29T11:22:28;1.85;;;0.88;;
79566;SDS011;69030;48.126;7.816;2023-12-29T11:24:55;2.50;;;2.10;;
79566;SDS011;69030;48.126;7.816;2023-12-29T11:27:28;2.10;;;1.15;;
79566;SDS011;69030;48.126;7.816;2023-12-29T11:30:03;1.23;;;0.75;;
79566;SDS011;69030;48.126;7.816;2023-12-29T11:38:24;1.52;;;1.02;;
79566;SDS011;69030;48.126;7.816;2023-12-29T11:43:56;1.55;;;1.08;;
79566;SDS011;69030;48.126;7.816;2023-12-29T11:46:35;2.00;;;1.27;;
79566;SDS011;69030;48.126;7.816;2023-12-29T11:49:01;2.63;;;0.90;;
79566;SDS011;69030;48.126;7.816;2023-12-29T11:54:07;2.33;;;2.13;;
79566;SDS011;69030;48.126;7.816;2023-12-29T11:56:34;1.67;;;0.82;;
79566;SDS011;69030;48.126;7.816;2023-12-29T12:01:48;0.90;;;0.57;;
79566;SDS011;69030;48.126;7.816;2023-12-29T12:04:34;1.23;;;0.98;;
79566;SDS011;69030;48.126;7.816;2023-12-29T12:07:05;4.35;;;1.83;;
79566;SDS011;69030;48.126;7.816;2023-12-29T12:09:49;1.40;;;1.00;;
79566;SDS011;69030;48.126;7.816;2023-12-29T12:15:03;2.22;;;0.52;;
79566;SDS011;69030;48.126;7.816;2023-12-29T12:17:51;1.65;;;0.93;;
79566;SDS011;69030;48.126;7.816;2023-12-29T12:20:16;1.20;;;0.80;;
79566;SDS011;69030;48.126;7.816;2023-12-29T12:22:44;2.45;;;2.25;;
79566;SDS011;69030;48.126;7.816;2023-12-29T12:25:14;1.38;;;0.75;;
79566;SDS011;69030;48.126;7.816;2023-12-29T12:27:41;0.95;;;0.63;;
79566;SDS011;69030;48.126;7.816;2023-12-29T12:30:07;2.80;;;0.73;;
79566;SDS011;69030;48.126;7.816;2023-12-29T12:32:35;1.55;;;0.77;;
79566;SDS011;69030;48.126;7.816;2023-12-29T12:35:03;1.98;;;0.90;;
79566;SDS011;69030;48.126;7.816;2023-12-29T12:37:38;0.93;;;0.55;;
79566;SDS011;69030;48.126;7.816;2023-12-29T12:40:04;1.27;;;0.52;;
79566;SDS011;69030;48.126;7.816;2023-12-29T12:42:34;1.23;;;0.65;;
79566;SDS011;69030;48.126;7.816;2023-12-29T12:45:06;1.13;;;0.47;;
79566;SDS011;69030;48.126;7.816;2023-12-29T12:47:37;0.85;;;0.55;;
79566;SDS011;69030;48.126;7.816;2023-12-29T12:50:07;1.17;;;0.85;;
79566;SDS011;69030;48.126;7.816;2023-12-29T12:52:35;2.88;;;1.80;;
79566;SDS011;69030;48.126;7.816;2023-12-29T12:55:02;1.83;;;0.60;;
79566;SDS011;69030;48.126;7.816;2023-12-29T12:57:28;1.42;;;1.05;;
79566;SDS011;69030;48.126;7.816;2023-12-29T12:59:54;1.38;;;0.85;;
79566;SDS011;69030;48.126;7.816;2023-12-29T13:02:29;0.73;;;0.52;;
79566;SDS011;69030;48.126;7.816;2023-12-29T13:04:59;3.13;;;1.00;;
79566;SDS011;69030;48.126;7.816;2023-12-29T13:07:25;1.15;;;0.47;;
79566;SDS011;69030;48.126;7.816;2023-12-29T13:09:51;0.90;;;0.55;;
79566;SDS011;69030;48.126;7.816;2023-12-29T13:12:17;1.45;;;0.77;;
79566;SDS011;69030;48.126;7.816;2023-12-29T13:14:43;1.65;;;0.82;;
79566;SDS011;69030;48.126;7.816;2023-12-29T13:17:13;1.58;;;0.38;;
79566;SDS011;69030;48.126;7.816;2023-12-29T13:19:42;0.70;;;0.43;;
79566;SDS011;69030;48.126;7.816;2023-12-29T13:22:10;1.17;;;0.80;;
79566;SDS011;69030;48.126;7.816;2023-12-29T13:24:42;1.40;;;0.50;;
79566;SDS011;69030;48.126;7.816;2023-12-29T13:29:36;1.10;;;0.55;;
79566;SDS011;69030;48.126;7.816;2023-12-29T13:32:07;3.70;;;0.80;;
79566;SDS011;69030;48.126;7.816;2023-12-29T13:34:38;2.92;;;0.80;;
79566;SDS011;69030;48.126;7.816;2023-12-29T13:42:37;7.40;;;1.25;;
79566;SDS011;69030;48.126;7.816;2023-12-29T13:45:05;2.05;;;0.93;;
79566;SDS011;69030;48.126;7.816;2023-12-29T13:47:31;3.63;;;0.88;;
79566;SDS011;69030;48.126;7.816;2023-12-29T13:49:57;1.50;;;0.82;;
79566;SDS011;69030;48.126;7.816;2023-12-29T13:52:23;2.22;;;0.77;;
79566;SDS011;69030;48.126;7.816;2023-12-29T13:54:49;1.95;;;1.05;;
79566;SDS011;69030;48.126;7.816;2023-12-29T13:57:17;2.08;;;0.65;;
79566;SDS011;69030;48.126;7.816;2023-12-29T13:59:43;3.35;;;1.70;;
79566;SDS011;69030;48.126;7.816;2023-12-29T14:02:27;1.95;;;1.02;;
79566;SDS011;69030;48.126;7.816;2023-12-29T14:07:52;1.63;;;1.08;;
79566;SDS011;69030;48.126;7.816;2023-12-29T14:10:18;5.63;;;0.77;;
79566;SDS011;69030;48.126;7.816;2023-12-29T14:12:43;1.98;;;1.58;;
